createdAt,value
2019-05-13T00:00:14.948Z,7.90
2019-05-13T00:02:43.938Z,8.75
2019-05-13T00:05:14.746Z,7.05
2019-05-13T00:07:43.891Z,13.60
2019-05-13T00:10:14.650Z,9.53
2019-05-13T00:12:44.732Z,11.05
2019-05-13T00:15:14.212Z,7.00
2019-05-13T00:17:44.656Z,7.65
2019-05-13T00:20:14.171Z,11.43
2019-05-13T00:22:44.810Z,9.85
2019-05-13T00:25:14.526Z,9.83
2019-05-13T00:27:44.529Z,9.38
2019-05-13T00:30:14.511Z,8.35
2019-05-13T00:32:44.554Z,9.18
2019-05-13T00:35:14.151Z,9.45
2019-05-13T00:37:44.378Z,12.63
2019-05-13T00:40:14.437Z,12.30
2019-05-13T00:42:44.131Z,10.88
2019-05-13T00:45:14.544Z,15.68
2019-05-13T00:47:43.760Z,9.73
2019-05-13T00:50:14.237Z,11.12
2019-05-13T00:52:44.835Z,10.25
2019-05-13T00:55:14.777Z,11.93
2019-05-13T00:57:43.964Z,8.93
2019-05-13T01:00:14.114Z,9.30
2019-05-13T01:02:44.638Z,14.30
2019-05-13T01:05:14.649Z,15.28
2019-05-13T01:07:44.440Z,11.33
2019-05-13T01:10:13.646Z,14.07
2019-05-13T01:12:44.023Z,10.03
2019-05-13T01:15:13.551Z,13.80
2019-05-13T01:17:44.733Z,15.03
2019-05-13T01:20:14.455Z,10.18
2019-05-13T01:22:44.156Z,14.45
2019-05-13T01:25:14.431Z,12.65
2019-05-13T01:27:44.296Z,10.08
2019-05-13T01:30:13.875Z,11.93
2019-05-13T01:32:44.894Z,11.43
2019-05-13T01:35:14.875Z,15.18
2019-05-13T01:37:46.053Z,14.23
2019-05-13T01:40:14.587Z,11.12
2019-05-13T01:42:44.464Z,16.25
2019-05-13T01:45:13.998Z,12.80
2019-05-13T01:47:44.066Z,18.12
2019-05-13T01:50:14.286Z,14.65
2019-05-13T01:52:44.514Z,17.57
2019-05-13T01:55:14.603Z,12.33
2019-05-13T01:57:44.384Z,14.95
2019-05-13T02:00:14.202Z,14.75
2019-05-13T02:02:44.597Z,9.28
2019-05-13T02:05:14.195Z,21.27
2019-05-13T02:07:54.493Z,16.20
2019-05-13T02:10:16.429Z,13.85
2019-05-13T02:12:45.000Z,18.07
2019-05-13T02:15:14.838Z,11.93
2019-05-13T02:17:44.822Z,18.87
2019-05-13T02:20:14.939Z,18.67
2019-05-13T02:22:44.526Z,18.20
2019-05-13T02:25:13.870Z,17.62
2019-05-13T02:27:43.985Z,14.15
2019-05-13T02:30:16.249Z,15.45
2019-05-13T02:32:43.367Z,16.95
2019-05-13T02:35:14.093Z,25.12
2019-05-13T02:37:43.423Z,17.20
2019-05-13T02:40:13.481Z,14.40
2019-05-13T02:42:43.667Z,16.70
2019-05-13T02:45:12.784Z,20.55
2019-05-13T02:47:44.357Z,18.70
2019-05-13T02:50:12.640Z,20.77
2019-05-13T02:52:44.446Z,17.35
2019-05-13T02:55:12.854Z,16.37
2019-05-13T02:57:43.662Z,14.58
2019-05-13T03:00:13.005Z,19.55
2019-05-13T03:02:43.806Z,15.38
2019-05-13T03:05:13.735Z,19.48
2019-05-13T03:07:43.257Z,11.97
2019-05-13T03:10:13.939Z,16.15
2019-05-13T03:12:43.003Z,13.72
2019-05-13T03:15:13.302Z,18.98
2019-05-13T03:17:52.921Z,17.67
2019-05-13T03:20:22.875Z,13.93
2019-05-13T03:22:52.707Z,15.72
2019-05-13T03:25:22.613Z,23.87
2019-05-13T03:27:54.120Z,15.58
2019-05-13T03:30:25.117Z,20.70
2019-05-13T03:32:59.844Z,19.48
2019-05-13T03:35:26.746Z,14.28
2019-05-13T03:37:53.568Z,23.98
2019-05-13T03:40:23.092Z,16.85
2019-05-13T03:42:53.702Z,17.90
2019-05-13T03:45:24.844Z,23.20
2019-05-13T03:47:55.808Z,18.07
2019-05-13T03:50:24.441Z,19.55
2019-05-13T03:52:52.951Z,19.60
2019-05-13T03:55:23.358Z,20.55
2019-05-13T03:57:53.343Z,18.57
2019-05-13T04:00:23.472Z,22.35
2019-05-13T04:02:53.117Z,20.75
2019-05-13T04:05:23.408Z,24.47
2019-05-13T04:07:52.712Z,17.55
2019-05-13T04:10:22.920Z,25.35
2019-05-13T04:12:52.970Z,21.05
2019-05-13T04:15:23.791Z,28.52
2019-05-13T04:17:53.286Z,27.73
2019-05-13T04:20:23.368Z,28.40
2019-05-13T04:22:53.105Z,27.85
2019-05-13T04:25:23.321Z,20.00
2019-05-13T04:27:53.358Z,27.73
2019-05-13T04:30:22.691Z,22.32
2019-05-13T04:32:53.403Z,17.70
2019-05-13T04:35:23.472Z,14.25
2019-05-13T04:37:53.059Z,26.57
2019-05-13T04:40:23.019Z,24.67
2019-05-13T04:42:53.345Z,26.87
2019-05-13T04:45:23.928Z,23.62
2019-05-13T04:47:53.133Z,22.80
2019-05-13T04:50:22.702Z,20.95
2019-05-13T04:52:53.009Z,26.10
2019-05-13T04:55:22.884Z,22.75
2019-05-13T04:57:53.176Z,34.60
2019-05-13T05:00:43.205Z,25.48
2019-05-13T05:03:44.762Z,21.15
2019-05-13T05:06:14.268Z,23.15
2019-05-13T05:09:05.178Z,19.65
2019-05-13T05:11:42.399Z,15.58
2019-05-13T05:14:18.422Z,22.40
2019-05-13T05:17:15.590Z,16.80
2019-05-13T05:20:07.672Z,19.82
2019-05-13T05:23:11.298Z,20.72
2019-05-13T05:25:48.309Z,23.32
2019-05-13T05:28:36.613Z,18.73
2019-05-13T05:31:16.985Z,21.80
2019-05-13T05:34:05.708Z,21.05
2019-05-13T05:36:36.505Z,22.27
2019-05-13T05:39:22.415Z,19.67
2019-05-13T05:41:53.288Z,20.02
2019-05-13T05:44:25.325Z,22.48
2019-05-13T05:46:56.218Z,25.00
2019-05-13T05:49:26.696Z,15.32
2019-05-13T05:52:06.980Z,26.70
2019-05-13T05:54:38.233Z,22.10
2019-05-13T05:57:09.139Z,23.20
2019-05-13T05:59:38.493Z,15.75
2019-05-13T06:02:08.089Z,20.25
2019-05-13T06:04:36.779Z,21.90
2019-05-13T06:07:05.716Z,15.55
2019-05-13T06:09:34.234Z,16.45
2019-05-13T06:12:02.892Z,20.75
2019-05-13T06:14:32.750Z,25.60
2019-05-13T06:17:02.675Z,19.98
2019-05-13T06:19:32.234Z,19.82
2019-05-13T06:22:02.372Z,19.77
2019-05-13T06:24:31.487Z,15.25
2019-05-13T06:27:01.499Z,26.12
2019-05-13T06:29:31.714Z,25.27
2019-05-13T06:32:17.087Z,24.57
2019-05-13T06:34:32.667Z,21.68
2019-05-13T06:37:01.959Z,24.07
2019-05-13T06:39:31.705Z,19.77
2019-05-13T06:42:02.866Z,17.73
2019-05-13T06:44:31.675Z,14.83
2019-05-13T06:47:02.404Z,25.92
2019-05-13T06:49:32.229Z,20.52
2019-05-13T06:52:01.665Z,19.73
2019-05-13T06:54:32.944Z,15.38
2019-05-13T06:57:04.389Z,13.83
2019-05-13T06:59:31.791Z,24.23
2019-05-13T07:02:02.231Z,17.20
2019-05-13T07:04:32.615Z,19.60
2019-05-13T07:07:12.301Z,20.50
2019-05-13T07:09:32.504Z,19.45
2019-05-13T07:12:02.974Z,14.47
2019-05-13T07:14:32.526Z,16.97
2019-05-13T07:17:02.228Z,15.85
2019-05-13T07:19:32.378Z,18.98
2019-05-13T07:22:02.844Z,19.62
2019-05-13T07:24:32.437Z,16.57
2019-05-13T07:27:02.095Z,18.65
2019-05-13T07:29:32.598Z,18.52
2019-05-13T07:32:01.839Z,22.00
2019-05-13T07:34:33.702Z,17.23
2019-05-13T07:37:01.981Z,16.15
2019-05-13T07:39:32.686Z,15.18
2019-05-13T07:42:05.394Z,20.65
2019-05-13T07:44:32.586Z,14.18
2019-05-13T07:47:03.403Z,10.95
2019-05-13T07:49:31.750Z,14.75
2019-05-13T07:52:01.569Z,19.80
2019-05-13T07:54:33.087Z,11.45
2019-05-13T07:57:01.845Z,17.10
2019-05-13T07:59:31.849Z,15.53
2019-05-13T08:02:02.103Z,15.23
2019-05-13T08:04:33.562Z,13.93
2019-05-13T08:07:02.242Z,12.37
2019-05-13T08:09:31.919Z,14.80
2019-05-13T08:12:10.146Z,13.70
2019-05-13T08:14:32.767Z,14.07
2019-05-13T08:17:02.547Z,18.10
2019-05-13T08:19:32.535Z,11.80
2019-05-13T08:22:02.297Z,10.95
2019-05-13T08:24:31.618Z,15.18
2019-05-13T08:27:01.980Z,11.78
2019-05-13T08:29:32.863Z,17.12
2019-05-13T08:32:02.865Z,13.75
2019-05-13T08:34:32.901Z,11.93
2019-05-13T08:37:02.877Z,12.58
2019-05-13T08:39:35.905Z,14.10
2019-05-13T08:42:12.947Z,10.58
2019-05-13T08:44:32.630Z,14.07
2019-05-13T08:47:03.209Z,16.20
2019-05-13T08:49:32.477Z,13.45
2019-05-13T08:52:02.083Z,12.82
2019-05-13T08:54:32.916Z,13.60
2019-05-13T08:57:02.984Z,11.43
2019-05-13T08:59:31.942Z,10.20
2019-05-13T09:02:03.170Z,11.03
2019-05-13T09:04:31.576Z,13.00
2019-05-13T09:07:02.166Z,7.97
2019-05-13T09:09:31.723Z,12.88
2019-05-13T09:12:02.397Z,13.13
2019-05-13T09:14:32.383Z,12.05
2019-05-13T09:17:01.983Z,12.95
2019-05-13T09:19:32.341Z,14.55
2019-05-13T09:22:03.130Z,7.10
2019-05-13T09:24:37.190Z,11.55
2019-05-13T09:27:02.140Z,9.18
2019-05-13T09:29:32.306Z,10.23
2019-05-13T09:32:03.846Z,7.47
2019-05-13T09:34:32.850Z,7.50
2019-05-13T09:37:02.883Z,9.38
2019-05-13T09:39:32.461Z,9.48
2019-05-13T09:42:02.580Z,10.53
2019-05-13T09:44:32.801Z,11.22
2019-05-13T09:47:02.561Z,9.33
2019-05-13T09:49:32.998Z,13.20
2019-05-13T09:52:02.053Z,11.18
2019-05-13T09:54:32.597Z,8.43
2019-05-13T09:57:01.818Z,6.65
2019-05-13T09:59:31.833Z,10.98
2019-05-13T10:02:02.956Z,7.87
2019-05-13T10:04:31.829Z,9.70
2019-05-13T10:07:02.249Z,9.43
2019-05-13T10:09:32.742Z,6.22
2019-05-13T10:12:03.306Z,9.95
2019-05-13T10:14:32.727Z,7.58
2019-05-13T10:17:06.168Z,10.70
2019-05-13T10:19:32.482Z,13.20
2019-05-13T10:22:01.417Z,10.80
2019-05-13T10:24:32.355Z,6.72
2019-05-13T10:27:02.350Z,9.35
2019-05-13T10:29:32.129Z,10.82
2019-05-13T10:32:02.625Z,7.55
2019-05-13T10:34:32.049Z,10.10
2019-05-13T10:37:02.062Z,7.37
2019-05-13T10:39:31.422Z,7.10
2019-05-13T10:42:03.052Z,9.35
2019-05-13T10:44:30.236Z,10.00
2019-05-13T10:46:58.681Z,7.45
2019-05-13T10:49:27.164Z,7.67
2019-05-13T10:51:55.614Z,5.25
2019-05-13T10:54:24.103Z,3.67
2019-05-13T10:56:56.117Z,7.35
2019-05-13T10:59:23.215Z,7.22
2019-05-13T11:05:32.887Z,3.02
2019-05-13T11:08:02.017Z,4.25
2019-05-13T11:10:32.789Z,3.25
2019-05-13T11:13:01.654Z,3.87
2019-05-13T11:15:32.730Z,2.27
2019-05-13T11:18:03.074Z,4.28
2019-05-13T11:20:32.364Z,4.95
2019-05-13T11:23:02.342Z,6.72
2019-05-13T11:25:32.425Z,3.27
2019-05-13T11:28:01.636Z,4.60
2019-05-13T11:30:31.979Z,3.80
2019-05-13T11:33:02.255Z,3.65
2019-05-13T11:35:31.933Z,5.08
2019-05-13T11:38:01.650Z,6.55
2019-05-13T11:40:31.839Z,5.12
2019-05-13T11:43:01.718Z,5.00
2019-05-13T11:45:31.608Z,4.83
2019-05-13T11:48:02.332Z,3.12
2019-05-13T11:50:30.388Z,5.78
2019-05-13T11:52:58.874Z,7.00
2019-05-13T11:55:27.400Z,5.30
2019-05-13T11:57:56.041Z,4.00
2019-05-13T12:00:47.260Z,3.92
2019-05-13T12:03:16.242Z,3.70
2019-05-13T12:05:45.338Z,4.42
2019-05-13T12:08:13.986Z,3.70
2019-05-13T12:10:43.959Z,4.65
2019-05-13T12:13:12.769Z,3.58
2019-05-13T12:15:48.725Z,5.37
2019-05-13T12:18:12.628Z,6.17
2019-05-13T12:20:42.745Z,5.42
2019-05-13T12:23:13.025Z,7.22
2019-05-13T12:25:43.758Z,7.35
2019-05-13T12:28:11.855Z,5.65
2019-05-13T12:30:41.773Z,7.35
2019-05-13T12:33:13.504Z,5.33
2019-05-13T12:35:40.645Z,5.45
2019-05-13T12:38:12.867Z,5.17
2019-05-13T12:40:42.615Z,4.75
2019-05-13T12:43:12.641Z,4.67
2019-05-13T12:45:43.230Z,6.78
2019-05-13T12:48:13.668Z,5.97
2019-05-13T12:50:43.186Z,2.85
2019-05-13T12:53:12.784Z,6.08
2019-05-13T12:55:40.872Z,6.12
2019-05-13T12:58:09.667Z,4.62
2019-05-13T13:00:42.818Z,5.17
2019-05-13T13:03:13.063Z,6.72
2019-05-13T13:05:43.125Z,4.37
2019-05-13T13:08:24.025Z,5.45
2019-05-13T13:10:42.347Z,4.35
2019-05-13T13:13:11.009Z,6.35
2019-05-13T13:15:43.471Z,9.95
2019-05-13T13:18:13.939Z,8.90
2019-05-13T13:20:42.260Z,5.78
2019-05-13T13:23:12.550Z,4.15
2019-05-13T13:25:44.198Z,6.40
2019-05-13T13:28:15.032Z,4.78
2019-05-13T13:30:43.874Z,6.60
2019-05-13T13:33:15.126Z,3.58
2019-05-13T13:35:45.188Z,4.05
2019-05-13T13:38:11.467Z,5.42
2019-05-13T13:40:40.790Z,3.20
2019-05-13T13:43:12.314Z,3.67
2019-05-13T13:48:13.394Z,5.58
2019-05-13T13:50:44.309Z,2.33
2019-05-13T13:53:14.041Z,3.25
2019-05-13T13:55:44.249Z,3.02
2019-05-13T13:58:14.336Z,4.28
2019-05-13T14:00:55.957Z,2.40
2019-05-13T14:03:12.571Z,3.17
2019-05-13T14:05:42.883Z,4.87
2019-05-13T14:08:12.504Z,2.67
2019-05-13T14:10:42.041Z,2.75
2019-05-13T14:13:12.505Z,5.47
2019-05-13T14:15:41.792Z,5.58
2019-05-13T14:18:11.474Z,3.90
2019-05-13T14:20:42.699Z,5.83
2019-05-13T14:23:12.621Z,3.65
2019-05-13T14:25:42.014Z,7.15
2019-05-13T14:28:10.684Z,6.20
2019-05-13T14:30:39.168Z,4.55
2019-05-13T14:33:07.618Z,3.72
2019-05-13T14:35:36.165Z,6.83
2019-05-13T14:38:04.695Z,5.22
2019-05-13T14:40:33.175Z,3.20
2019-05-13T14:43:03.667Z,2.80
2019-05-13T14:45:32.005Z,8.25
2019-05-13T14:48:01.674Z,7.35
2019-05-13T14:50:31.919Z,5.70
2019-05-13T14:53:01.556Z,4.03
2019-05-13T15:10:02.449Z,3.33
2019-05-13T15:12:32.281Z,1.87
2019-05-13T15:15:01.759Z,3.52
2019-05-13T15:17:32.428Z,2.75
2019-05-13T15:20:01.850Z,1.98
2019-05-13T15:22:31.959Z,5.03
2019-05-13T15:25:02.773Z,8.20
2019-05-13T15:27:31.668Z,3.12
2019-05-13T15:30:14.394Z,3.52
2019-05-13T15:32:32.583Z,2.87
2019-05-13T15:35:02.248Z,2.27
2019-05-13T15:37:32.120Z,3.98
2019-05-13T15:40:02.315Z,6.72
2019-05-13T15:42:31.874Z,4.62
2019-05-13T15:45:01.818Z,2.80
2019-05-13T15:47:31.135Z,2.98
2019-05-13T15:50:02.150Z,2.72
2019-05-13T15:52:31.690Z,4.22
2019-05-13T15:55:01.404Z,3.58
2019-05-13T15:57:31.870Z,2.58
2019-05-13T16:00:01.949Z,4.87
2019-05-13T16:02:31.394Z,2.27
2019-05-13T16:05:02.245Z,4.05
2019-05-13T16:07:30.393Z,2.08
2019-05-13T16:09:59.116Z,2.40
2019-05-13T16:12:31.866Z,3.98
2019-05-13T16:15:01.735Z,4.92
2019-05-13T16:17:38.783Z,2.95
2019-05-13T16:20:01.956Z,5.95
2019-05-13T16:22:31.553Z,3.45
2019-05-13T16:25:01.515Z,4.87
2019-05-13T16:27:31.149Z,3.67
2019-05-13T16:30:02.257Z,5.85
2019-05-13T16:32:31.885Z,4.28
2019-05-13T16:35:02.697Z,3.45
2019-05-13T16:37:31.454Z,4.37
2019-05-13T16:40:00.203Z,3.33
2019-05-13T16:42:28.700Z,4.72
2019-05-13T16:44:57.267Z,4.47
2019-05-13T16:47:25.755Z,8.73
2019-05-13T16:49:54.333Z,7.67
2019-05-13T16:52:23.156Z,3.55
2019-05-13T16:54:53.245Z,4.90
2019-05-13T16:57:22.357Z,4.97
2019-05-13T16:59:51.713Z,5.80
2019-05-13T17:02:20.641Z,7.95
2019-05-13T17:04:49.210Z,8.15
2019-05-13T17:07:17.957Z,6.67
2019-05-13T17:09:46.463Z,6.35
2019-05-13T17:12:15.876Z,4.50
2019-05-13T17:14:44.876Z,5.70
2019-05-13T17:17:13.628Z,3.30
2019-05-13T17:19:42.439Z,6.33
2019-05-13T17:22:10.977Z,4.65
2019-05-13T17:24:42.472Z,3.92
2019-05-13T17:27:11.985Z,8.58
2019-05-13T17:29:40.144Z,3.87
2019-05-13T17:32:08.757Z,4.12
2019-05-13T17:34:37.547Z,6.40
2019-05-13T17:37:06.120Z,9.43
2019-05-13T17:39:34.853Z,8.53
2019-05-13T17:42:03.482Z,5.85
2019-05-13T17:44:32.223Z,8.80
2019-05-13T17:47:01.655Z,3.60
2019-05-13T17:49:31.837Z,6.25
2019-05-13T17:52:02.483Z,4.78
2019-05-13T17:54:31.836Z,4.33
2019-05-13T17:57:01.893Z,8.40
2019-05-13T17:59:31.465Z,4.35
2019-05-13T18:02:02.561Z,6.22
2019-05-13T18:04:31.423Z,9.05
2019-05-13T18:07:01.739Z,3.47
2019-05-13T18:09:31.885Z,6.00
2019-05-13T18:12:02.379Z,4.58
2019-05-13T18:14:31.157Z,3.55
2019-05-13T18:17:02.158Z,6.42
2019-05-13T18:19:31.673Z,5.12
2019-05-13T18:22:02.208Z,8.45
2019-05-13T18:24:32.047Z,3.22
2019-05-13T18:27:01.469Z,5.35
2019-05-13T18:29:31.573Z,4.72
2019-05-13T18:32:02.017Z,4.62
2019-05-13T18:34:32.215Z,6.30
2019-05-13T18:37:02.373Z,4.15
2019-05-13T18:39:32.276Z,9.98
2019-05-13T18:42:01.211Z,4.33
2019-05-13T18:44:31.719Z,3.72
2019-05-13T18:47:01.468Z,5.53
2019-05-13T18:49:31.763Z,3.10
2019-05-13T18:52:00.971Z,7.95
2019-05-13T18:54:31.563Z,4.33
2019-05-13T18:57:01.669Z,3.25
2019-05-13T18:59:32.246Z,3.00
2019-05-13T19:02:01.672Z,3.60
2019-05-13T19:04:31.261Z,4.65
2019-05-13T19:07:02.397Z,5.83
2019-05-13T19:09:31.139Z,3.67
2019-05-13T19:12:01.413Z,4.05
2019-05-13T19:14:31.762Z,3.12
2019-05-13T19:17:00.586Z,7.05
2019-05-13T19:19:31.502Z,3.98
2019-05-13T19:22:01.934Z,4.08
2019-05-13T19:24:31.252Z,6.78
2019-05-13T19:27:01.669Z,4.55
2019-05-13T19:29:31.859Z,3.95
2019-05-13T19:32:01.773Z,3.12
2019-05-13T19:34:32.284Z,5.17
2019-05-13T19:37:02.369Z,4.53
2019-05-13T19:39:31.461Z,3.77
2019-05-13T19:42:00.101Z,3.30
2019-05-13T19:44:28.742Z,5.10
2019-05-13T19:46:57.391Z,6.00
2019-05-13T19:49:32.589Z,5.40
2019-05-13T19:51:56.669Z,5.75
2019-05-13T19:54:25.354Z,3.77
2019-05-13T19:56:54.041Z,5.28
2019-05-13T19:59:22.714Z,4.08
2019-05-13T20:01:51.800Z,5.78
2019-05-13T20:04:21.842Z,3.02
2019-05-13T20:06:51.935Z,5.37
2019-05-13T20:09:21.558Z,3.35
2019-05-13T20:11:55.067Z,3.70
2019-05-13T20:14:22.428Z,2.77
2019-05-13T20:16:52.435Z,2.83
2019-05-13T20:19:22.324Z,4.45
2019-05-13T20:21:51.822Z,3.70
2019-05-13T20:24:21.938Z,8.58
2019-05-13T20:26:52.160Z,7.65
2019-05-13T20:29:21.018Z,3.50
2019-05-13T20:31:51.712Z,6.33
2019-05-13T20:34:22.051Z,3.30
2019-05-13T20:36:51.598Z,2.70
2019-05-13T20:39:22.429Z,6.05
2019-05-13T20:41:55.564Z,6.10
2019-05-13T20:44:22.131Z,5.85
2019-05-13T20:46:51.844Z,2.55
2019-05-13T20:49:21.831Z,3.42
2019-05-13T20:51:51.671Z,5.37
2019-05-13T20:54:22.056Z,5.08
2019-05-13T20:56:51.790Z,3.12
2019-05-13T20:59:21.587Z,4.47
2019-05-13T21:01:51.131Z,4.47
2019-05-13T21:04:21.544Z,4.30
2019-05-13T21:06:51.564Z,5.58
2019-05-13T21:09:20.581Z,7.45
2019-05-13T21:11:51.332Z,2.47
2019-05-13T21:14:21.602Z,3.83
2019-05-13T21:16:49.691Z,10.65
2019-05-13T21:19:18.186Z,3.47
2019-05-13T21:21:46.769Z,4.92
2019-05-13T21:24:15.270Z,7.00
2019-05-13T21:26:43.831Z,7.35
2019-05-13T21:29:12.564Z,6.72
2019-05-13T21:31:41.562Z,6.78
2019-05-13T21:34:11.910Z,3.95
2019-05-13T21:36:41.220Z,5.25
2019-05-13T21:39:12.234Z,6.45
2019-05-13T21:41:41.285Z,6.03
2019-05-13T21:44:11.984Z,3.30
2019-05-13T21:46:41.111Z,5.72
2019-05-13T21:49:11.863Z,5.50
2019-05-13T21:51:41.748Z,5.53
2019-05-13T21:54:11.929Z,2.87
2019-05-13T21:56:42.656Z,5.90
2019-05-13T21:59:11.000Z,3.80
2019-05-13T22:01:42.064Z,7.20
2019-05-13T22:04:12.147Z,6.00
2019-05-13T22:06:40.364Z,4.50
2019-05-13T22:09:11.756Z,6.65
2019-05-13T22:11:41.961Z,7.50
2019-05-13T22:14:11.432Z,7.40
2019-05-13T22:16:41.309Z,8.05
2019-05-13T22:19:12.308Z,3.40
2019-05-13T22:21:42.364Z,3.40
2019-05-13T22:24:11.704Z,5.58
2019-05-13T22:26:42.025Z,3.45
2019-05-13T22:29:11.089Z,10.40
2019-05-13T22:31:41.828Z,3.05
2019-05-13T22:34:12.100Z,5.80
2019-05-13T22:36:40.275Z,7.92
2019-05-13T22:39:11.340Z,7.08
2019-05-13T22:41:39.118Z,4.50
2019-05-13T22:44:07.674Z,4.67
2019-05-13T22:46:36.176Z,4.72
2019-05-13T22:49:04.676Z,8.75
2019-05-13T22:51:33.248Z,6.83
2019-05-13T22:54:02.000Z,7.05
2019-05-13T22:56:31.926Z,6.60
2019-05-13T22:59:02.080Z,11.15
2019-05-13T23:01:32.375Z,8.48
2019-05-13T23:04:02.158Z,9.03
2019-05-13T23:06:32.171Z,7.62
2019-05-13T23:09:01.749Z,4.65
2019-05-13T23:11:31.058Z,7.80
2019-05-13T23:14:09.690Z,5.55
2019-05-13T23:16:31.614Z,8.60
2019-05-13T23:19:00.496Z,6.90
2019-05-13T23:21:31.143Z,7.40
2019-05-13T23:24:00.127Z,8.88
2019-05-13T23:26:31.526Z,6.55
2019-05-13T23:29:01.391Z,6.65
2019-05-13T23:31:30.468Z,6.60
2019-05-13T23:34:01.273Z,6.10
2019-05-13T23:36:31.492Z,6.87
2019-05-13T23:39:01.065Z,6.17
2019-05-13T23:41:30.045Z,8.98
2019-05-13T23:43:58.692Z,4.65
2019-05-13T23:46:27.183Z,6.40
2019-05-13T23:48:55.827Z,10.23
2019-05-13T23:51:24.469Z,7.85
2019-05-13T23:53:53.163Z,6.50
2019-05-13T23:56:21.935Z,5.65
2019-05-13T23:58:51.939Z,9.63
